• Join FlightAware (Why Join?)
  • Login
  • US Flag 
06:33AM EDT


 

Airport Tracker/Info


-or-


 

Live Flight TrackerFlight Track Log ✈ SWA3034 ✈ 01-Jun-2013 ✈ KLAS - KELP

Flight Track Log - Related Links

Times and Time Zones

All times are in EDT time to prevent confusion due to time zone crossing. See the SWA3034 flight status page for this flight to view local times or setup timezone preferences in your user account.

Time Position Orientation Groundspeed Altitude Reporting Facility
EDT Latitude Longitude Course Direction KTS MPH feet Rate Location/Type
04:10PM 36.0758 -115.1072 88° East 171 197 3,700  Level Los Angeles Center
04:10PM 36.0764 -115.0903 88° East 179 206 4,100 1,800 Climbing Los Angeles Center
04:11PM 36.0761 -115.0297 90° East 237 273 5,500 1,620 Climbing Los Angeles Center
04:11PM 36.0761 -115.0108 90° East 216 249 5,800 1,560 Climbing Los Angeles Center
04:12PM 36.0742 -114.9319 92° East 282 325 7,100 1,740 Climbing Los Angeles Center
04:12PM 36.0708 -114.9133 102° East 267 307 7,600 2,520 Climbing Los Angeles Center
04:13PM 36.0522 -114.7953 101° East 292 336 10,700 2,640 Climbing Los Angeles Center
04:14PM 36.0364 -114.6828 100° East 332 382 13,100 2,280 Climbing Los Angeles Center
04:15PM 36.0181 -114.5661 101° East 345 397 15,500 2,220 Climbing Los Angeles Center
04:16PM 36.0017 -114.4431 99° East 361 415 17,800 2,160 Climbing Los Angeles Center
04:17PM 35.9839 -114.3186 100° East 369 425 20,000 1,800 Climbing Los Angeles Center
04:18PM 35.9647 -114.1900 100° East 381 438 21,600 1,800 Climbing Los Angeles Center
04:19PM 35.9408 -114.0275 100° East 400 460 23,800 1,800 Climbing Los Angeles Center
04:20PM 35.9206 -113.8908 100° East 406 467 25,400 1,440 Climbing Los Angeles Center
04:21PM 35.8925 -113.7536 104° East 412 474 26,800 1,080 Climbing Los Angeles Center
04:22PM 35.8636 -113.6117 104° East 426 490 27,700 960 Climbing Los Angeles Center
04:23PM 35.8306 -113.4514 104° East 444 511 28,800 1,020 Climbing Los Angeles Center
04:24PM 35.7983 -113.2967 104° East 463 533 29,900 1,260 Climbing Los Angeles Center
04:25PM 35.7656 -113.1397 104° East 471 542 31,500 1,260 Climbing Los Angeles Center
04:26PM 35.7333 -112.9847 104° East 468 539 32,600 720 Climbing Los Angeles Center
04:27PM 35.6997 -112.8253 105° East 475 547 33,000 180 Climbing Los Angeles Center
04:28PM 35.6644 -112.6617 105° East 483 556 33,000 720 Level Los Angeles Center
04:29PM 35.6303 -112.5025 105° East 486 559 34,500 1,200 Climbing Los Angeles Center
04:31PM 35.5850 -112.3147 106° East 482 555 35,600 960 Climbing Los Angeles Center
04:32PM 35.5281 -112.1681 115° Southeast 477 549 36,500 660 Climbing Los Angeles Center
04:33PM 35.4533 -112.0353 125° Southeast 473 544 37,000 240 Climbing Los Angeles Center
04:34PM 35.3794 -111.9017 124° Southeast 475 547 37,000  Level Los Angeles Center
04:35PM 35.3064 -111.7675 124° Southeast 475 547 37,000  Level Los Angeles Center
04:36PM 35.2303 -111.6336 125° Southeast 475 547 37,000  Level Albuquerque Center
04:37PM 35.1425 -111.4731 124° Southeast 473 544 37,000  Level Albuquerque Center
04:38PM 35.0683 -111.3386 124° Southeast 475 547 37,000  Level Albuquerque Center
04:39PM 34.9931 -111.2050 124° Southeast 477 549 37,000  Level Albuquerque Center
04:40PM 34.9181 -111.0708 124° Southeast 478 550 37,000  Level Albuquerque Center
04:41PM 34.8425 -110.9361 124° Southeast 480 552 37,000  Level Albuquerque Center
04:42PM 34.7681 -110.8050 125° Southeast 475 547 37,000  Level Albuquerque Center
04:43PM 34.6800 -110.6475 124° Southeast 476 548 37,000  Level Albuquerque Center
04:44PM 34.6097 -110.5219 124° Southeast 473 544 37,000  Level Albuquerque Center
04:45PM 34.5375 -110.3964 125° Southeast 474 545 37,000  Level Albuquerque Center
04:46PM 34.4506 -110.2456 125° Southeast 482 555 37,000  Level Albuquerque Center
04:47PM 34.3781 -110.1192 125° Southeast 479 551 37,000  Level Albuquerque Center
04:48PM 34.2947 -109.9739 125° Southeast 474 545 37,000  Level Albuquerque Center
04:49PM 34.2228 -109.8481 125° Southeast 475 547 37,000  Level Albuquerque Center
04:50PM 34.1383 -109.7039 125° Southeast 473 544 37,000  Level Albuquerque Center
04:51PM 34.0650 -109.5783 125° Southeast 475 547 37,000  Level Albuquerque Center
04:52PM 33.9883 -109.4467 125° Southeast 478 550 37,000  Level Albuquerque Center
04:53PM 33.9108 -109.3167 126° Southeast 478 550 37,000  Level Albuquerque Center
04:54PM 33.8356 -109.1869 125° Southeast 477 549 37,000  Level Albuquerque Center
04:55PM 33.7583 -109.0586 126° Southeast 476 548 37,000  Level Albuquerque Center
04:56PM 33.6828 -108.9311 125° Southeast 473 544 37,000  Level Albuquerque Center
04:57PM 33.5911 -108.7794 126° Southeast 471 542 37,000  Level Albuquerque Center
04:58PM 33.5144 -108.6511 126° Southeast 472 543 37,000  Level Albuquerque Center
04:59PM 33.4386 -108.5244 126° Southeast 470 541 37,000 -180 Level Albuquerque Center
05:00PM 33.3625 -108.3967 125° Southeast 470 541 36,700 -660 Descending Albuquerque Center
05:01PM 33.2847 -108.2706 126° Southeast 472 543 35,700 -960 Descending Albuquerque Center
05:02PM 33.2072 -108.1472 127° Southeast 467 537 34,800 -960 Descending Albuquerque Center
05:03PM 33.1214 -108.0397 134° Southeast 464 534 33,800 -900 Descending Albuquerque Center
05:04PM 33.0153 -107.9072 134° Southeast 463 533 33,000 -420 Descending Albuquerque Center
05:05PM 32.9267 -107.7958 133° Southeast 461 531 33,000  Level Albuquerque Center
05:06PM 32.8397 -107.6850 133° Southeast 461 531 33,000  Level Albuquerque Center
05:07PM 32.7489 -107.5736 134° Southeast 465 535 33,000  Level Albuquerque Center
05:08PM 32.6569 -107.4589 134° Southeast 471 542 33,000 -1,380 Level Albuquerque Center
05:10PM 32.5717 -107.3486 133° Southeast 465 535 30,200 -3,060 Descending Albuquerque Center
05:11PM 32.4958 -107.2283 127° Southeast 462 532 26,800 -3,480 Descending Albuquerque Center
05:12PM 32.4086 -107.0897 127° Southeast 459 528 23,100 -3,540 Descending Albuquerque Center
05:12PM 32.3853 -107.0539 128° Southeast 458 527 22,200 -3,060 Descending Albuquerque Center
05:13PM 32.3117 -106.9386 127° Southeast 437 503 19,200 -2,820 Descending Albuquerque Center
05:14PM 32.2578 -106.8761 136° Southeast 426 490 17,300 -2,760 Descending Albuquerque Center
05:14PM 32.2236 -106.8497 147° Southeast 413 475 16,400 -2,700 Descending Albuquerque Center
05:15PM 32.1636 -106.8017 146° Southeast 407 468 14,600 -2,880 Descending Albuquerque Center
05:15PM 32.1244 -106.7714 147° Southeast 395 455 13,500 -2,520 Descending Albuquerque Center
05:16PM 32.0744 -106.7300 145° Southeast 390 449 12,000 -1,920 Descending Albuquerque Center
05:17PM 32.0350 -106.6022 110° East 342 394 10,100 -1,500 Descending Albuquerque Center
05:18PM 32.0122 -106.5128 107° East 293 337 9,000 -960 Descending Albuquerque Center
05:19PM 31.9903 -106.4261 107° East 277 319 8,200 -1,080 Descending Albuquerque Center
05:20PM 31.9678 -106.3383 107° East 280 322 6,800 -900 Descending Albuquerque Center
05:21PM 31.9128 -106.2922 145° Southeast 244 281 6,400 -660 Descending Albuquerque Center
05:22PM 31.8550 -106.3228 204° Southwest 206 237 5,500 -1,140 Descending Albuquerque Center
05:23PM 31.8242 -106.3664 230° Southwest 166 191 4,100 -1,380 Descending Albuquerque Center
05:25PM 31.8000 -106.3667 North  Level FlightAware Approximate
05:32PM 31.8072 -106.3764 North  Level Estimated
05:33PM 31.8072 -106.3764 North  Level Estimated
05:34PM 31.8072 -106.3764 North  Level Estimated
05:35PM 31.8072 -106.3764 North  Level Estimated